Terminal Aerodrome Forecast
Issued by NWS

Home | Current Version | Previous Version | Text Only | Print | Product List | Glossary On
Versions: 1 2 3 4 5 6 7 8 9 10 11 12 13 14 15 16 17
000
FTUS46 KSEW 242300
TAFPAE
TAF
KPAE 242331Z 2500/2524 18011KT P6SM OVC008
     FM250600 13007KT P6SM SCT012 OVC050
     FM251100 12005KT 2SM BR OVC004
     FM251600 13004KT P6SM BKN004 BKN200
     FM251800 12005KT P6SM BKN200=

USA.gov is the U.S. government's official web portal to all federal, state and local government web resources and services.